sensor_id;sensor_type;location;lat;lon;timestamp;P1;durP1;ratioP1;P2;durP2;ratioP2
25449;SDS011;13371;52.080;5.624;2024-02-15T00:00:36;17.80;;;9.38;;
25449;SDS011;13371;52.080;5.624;2024-02-15T00:03:02;17.17;;;9.35;;
25449;SDS011;13371;52.080;5.624;2024-02-15T00:05:31;19.27;;;9.95;;
25449;SDS011;13371;52.080;5.624;2024-02-15T00:08:01;22.05;;;9.75;;
25449;SDS011;13371;52.080;5.624;2024-02-15T00:10:27;19.30;;;8.95;;
25449;SDS011;13371;52.080;5.624;2024-02-15T00:12:53;18.83;;;8.57;;
25449;SDS011;13371;52.080;5.624;2024-02-15T00:15:18;19.40;;;8.57;;
25449;SDS011;13371;52.080;5.624;2024-02-15T00:17:44;17.45;;;8.05;;
25449;SDS011;13371;52.080;5.624;2024-02-15T00:20:11;15.77;;;8.23;;
25449;SDS011;13371;52.080;5.624;2024-02-15T00:22:38;14.63;;;8.02;;
25449;SDS011;13371;52.080;5.624;2024-02-15T00:25:06;14.70;;;7.20;;
25449;SDS011;13371;52.080;5.624;2024-02-15T00:27:34;18.90;;;8.23;;
25449;SDS011;13371;52.080;5.624;2024-02-15T00:30:03;18.80;;;7.97;;
25449;SDS011;13371;52.080;5.624;2024-02-15T00:32:32;17.48;;;7.85;;
25449;SDS011;13371;52.080;5.624;2024-02-15T00:34:58;16.15;;;7.95;;
25449;SDS011;13371;52.080;5.624;2024-02-15T00:37:24;16.02;;;7.63;;
25449;SDS011;13371;52.080;5.624;2024-02-15T00:39:49;16.88;;;7.95;;
25449;SDS011;13371;52.080;5.624;2024-02-15T00:42:15;12.73;;;6.90;;
25449;SDS011;13371;52.080;5.624;2024-02-15T00:44:41;14.65;;;7.75;;
25449;SDS011;13371;52.080;5.624;2024-02-15T00:47:07;11.77;;;6.95;;
25449;SDS011;13371;52.080;5.624;2024-02-15T00:49:35;16.55;;;7.75;;
25449;SDS011;13371;52.080;5.624;2024-02-15T00:52:01;18.40;;;8.40;;
25449;SDS011;13371;52.080;5.624;2024-02-15T00:54:27;14.43;;;7.85;;
25449;SDS011;13371;52.080;5.624;2024-02-15T00:56:52;13.32;;;7.43;;
25449;SDS011;13371;52.080;5.624;2024-02-15T00:59:18;16.23;;;8.00;;
25449;SDS011;13371;52.080;5.624;2024-02-15T01:01:43;14.80;;;7.00;;
25449;SDS011;13371;52.080;5.624;2024-02-15T01:04:09;13.23;;;7.57;;
25449;SDS011;13371;52.080;5.624;2024-02-15T01:06:35;13.00;;;7.50;;
25449;SDS011;13371;52.080;5.624;2024-02-15T01:09:01;21.45;;;9.40;;
25449;SDS011;13371;52.080;5.624;2024-02-15T01:11:28;23.25;;;9.90;;
25449;SDS011;13371;52.080;5.624;2024-02-15T01:13:54;19.38;;;10.10;;
25449;SDS011;13371;52.080;5.624;2024-02-15T01:16:20;18.73;;;10.13;;
25449;SDS011;13371;52.080;5.624;2024-02-15T01:18:49;17.77;;;10.68;;
25449;SDS011;13371;52.080;5.624;2024-02-15T01:21:15;22.98;;;12.65;;
25449;SDS011;13371;52.080;5.624;2024-02-15T01:23:40;23.38;;;12.60;;
25449;SDS011;13371;52.080;5.624;2024-02-15T01:26:07;26.00;;;15.18;;
25449;SDS011;13371;52.080;5.624;2024-02-15T01:28:33;29.17;;;14.60;;
25449;SDS011;13371;52.080;5.624;2024-02-15T01:30:59;27.20;;;16.15;;
25449;SDS011;13371;52.080;5.624;2024-02-15T01:33:24;27.60;;;15.25;;
25449;SDS011;13371;52.080;5.624;2024-02-15T01:35:50;24.80;;;14.07;;
25449;SDS011;13371;52.080;5.624;2024-02-15T01:38:16;27.15;;;15.45;;
25449;SDS011;13371;52.080;5.624;2024-02-15T01:40:41;25.70;;;14.60;;
25449;SDS011;13371;52.080;5.624;2024-02-15T01:43:07;29.38;;;16.48;;
25449;SDS011;13371;52.080;5.624;2024-02-15T01:45:33;29.67;;;14.95;;
25449;SDS011;13371;52.080;5.624;2024-02-15T01:47:58;24.48;;;13.95;;
25449;SDS011;13371;52.080;5.624;2024-02-15T01:50:24;26.73;;;15.25;;
25449;SDS011;13371;52.080;5.624;2024-02-15T01:52:52;29.73;;;15.55;;
25449;SDS011;13371;52.080;5.624;2024-02-15T01:55:19;30.45;;;15.35;;
25449;SDS011;13371;52.080;5.624;2024-02-15T01:57:46;28.58;;;16.05;;
25449;SDS011;13371;52.080;5.624;2024-02-15T02:00:15;24.25;;;14.68;;
25449;SDS011;13371;52.080;5.624;2024-02-15T02:02:43;23.58;;;14.43;;
25449;SDS011;13371;52.080;5.624;2024-02-15T02:05:10;27.30;;;13.88;;
25449;SDS011;13371;52.080;5.624;2024-02-15T02:07:36;27.38;;;14.90;;
25449;SDS011;13371;52.080;5.624;2024-02-15T02:10:02;24.08;;;14.52;;
25449;SDS011;13371;52.080;5.624;2024-02-15T02:12:29;21.20;;;12.93;;
25449;SDS011;13371;52.080;5.624;2024-02-15T02:14:55;27.90;;;13.98;;
25449;SDS011;13371;52.080;5.624;2024-02-15T02:17:21;21.40;;;12.48;;
25449;SDS011;13371;52.080;5.624;2024-02-15T02:19:49;22.92;;;13.52;;
25449;SDS011;13371;52.080;5.624;2024-02-15T02:22:15;24.58;;;12.90;;
25449;SDS011;13371;52.080;5.624;2024-02-15T02:27:33;20.60;;;12.55;;
25449;SDS011;13371;52.080;5.624;2024-02-15T02:29:59;24.15;;;12.50;;
25449;SDS011;13371;52.080;5.624;2024-02-15T02:32:25;20.70;;;11.07;;
25449;SDS011;13371;52.080;5.624;2024-02-15T02:34:52;24.30;;;10.57;;
25449;SDS011;13371;52.080;5.624;2024-02-15T02:37:22;18.77;;;11.00;;
25449;SDS011;13371;52.080;5.624;2024-02-15T02:39:49;25.45;;;11.50;;
25449;SDS011;13371;52.080;5.624;2024-02-15T02:42:15;18.27;;;10.25;;
25449;SDS011;13371;52.080;5.624;2024-02-15T02:44:40;18.90;;;10.40;;
25449;SDS011;13371;52.080;5.624;2024-02-15T02:47:06;22.75;;;11.02;;
25449;SDS011;13371;52.080;5.624;2024-02-15T02:49:31;18.90;;;10.93;;
25449;SDS011;13371;52.080;5.624;2024-02-15T02:51:57;23.90;;;10.07;;
25449;SDS011;13371;52.080;5.624;2024-02-15T02:54:23;19.33;;;10.15;;
25449;SDS011;13371;52.080;5.624;2024-02-15T02:56:48;21.73;;;10.77;;
25449;SDS011;13371;52.080;5.624;2024-02-15T02:59:14;21.25;;;9.95;;
25449;SDS011;13371;52.080;5.624;2024-02-15T03:01:41;19.05;;;10.52;;
25449;SDS011;13371;52.080;5.624;2024-02-15T03:04:07;17.48;;;9.35;;
25449;SDS011;13371;52.080;5.624;2024-02-15T03:06:33;25.50;;;10.90;;
25449;SDS011;13371;52.080;5.624;2024-02-15T03:08:59;19.50;;;9.90;;
25449;SDS011;13371;52.080;5.624;2024-02-15T03:11:24;17.42;;;9.07;;
25449;SDS011;13371;52.080;5.624;2024-02-15T03:13:50;20.25;;;9.85;;
25449;SDS011;13371;52.080;5.624;2024-02-15T03:16:15;15.90;;;9.57;;
25449;SDS011;13371;52.080;5.624;2024-02-15T03:18:41;17.65;;;9.73;;
25449;SDS011;13371;52.080;5.624;2024-02-15T03:21:08;21.98;;;10.00;;
25449;SDS011;13371;52.080;5.624;2024-02-15T03:23:35;20.00;;;10.00;;
25449;SDS011;13371;52.080;5.624;2024-02-15T03:26:07;22.10;;;11.00;;
25449;SDS011;13371;52.080;5.624;2024-02-15T03:28:34;23.42;;;9.75;;
25449;SDS011;13371;52.080;5.624;2024-02-15T03:31:01;18.58;;;8.43;;
25449;SDS011;13371;52.080;5.624;2024-02-15T03:33:27;19.20;;;9.05;;
25449;SDS011;13371;52.080;5.624;2024-02-15T03:35:57;27.17;;;9.30;;
25449;SDS011;13371;52.080;5.624;2024-02-15T03:38:25;18.08;;;9.43;;
25449;SDS011;13371;52.080;5.624;2024-02-15T03:40:56;21.75;;;9.38;;
25449;SDS011;13371;52.080;5.624;2024-02-15T03:43:22;11.90;;;7.75;;
25449;SDS011;13371;52.080;5.624;2024-02-15T03:45:48;14.02;;;8.30;;
25449;SDS011;13371;52.080;5.624;2024-02-15T03:48:14;24.25;;;9.43;;
25449;SDS011;13371;52.080;5.624;2024-02-15T03:50:40;18.05;;;8.73;;
25449;SDS011;13371;52.080;5.624;2024-02-15T03:53:06;17.23;;;8.52;;
25449;SDS011;13371;52.080;5.624;2024-02-15T03:55:36;21.02;;;9.30;;
25449;SDS011;13371;52.080;5.624;2024-02-15T03:58:01;18.60;;;8.38;;
25449;SDS011;13371;52.080;5.624;2024-02-15T04:00:27;20.92;;;8.90;;
25449;SDS011;13371;52.080;5.624;2024-02-15T04:02:53;19.30;;;8.95;;
25449;SDS011;13371;52.080;5.624;2024-02-15T04:05:18;16.30;;;8.57;;
25449;SDS011;13371;52.080;5.624;2024-02-15T04:07:46;14.25;;;7.72;;
25449;SDS011;13371;52.080;5.624;2024-02-15T04:10:13;18.00;;;8.25;;
25449;SDS011;13371;52.080;5.624;2024-02-15T04:12:39;17.80;;;7.53;;
25449;SDS011;13371;52.080;5.624;2024-02-15T04:15:07;20.88;;;7.32;;
25449;SDS011;13371;52.080;5.624;2024-02-15T04:17:37;20.00;;;8.57;;
25449;SDS011;13371;52.080;5.624;2024-02-15T04:20:03;18.48;;;7.78;;
25449;SDS011;13371;52.080;5.624;2024-02-15T04:22:31;12.68;;;7.05;;
25449;SDS011;13371;52.080;5.624;2024-02-15T04:25:03;15.07;;;7.35;;
25449;SDS011;13371;52.080;5.624;2024-02-15T04:27:31;13.70;;;7.47;;
25449;SDS011;13371;52.080;5.624;2024-02-15T04:29:56;21.75;;;7.30;;
25449;SDS011;13371;52.080;5.624;2024-02-15T04:32:22;16.05;;;6.93;;
25449;SDS011;13371;52.080;5.624;2024-02-15T04:34:48;15.90;;;6.90;;
25449;SDS011;13371;52.080;5.624;2024-02-15T04:37:13;12.80;;;6.68;;
25449;SDS011;13371;52.080;5.624;2024-02-15T04:39:39;14.20;;;6.75;;
25449;SDS011;13371;52.080;5.624;2024-02-15T04:42:05;12.20;;;5.88;;
25449;SDS011;13371;52.080;5.624;2024-02-15T04:44:34;16.85;;;6.40;;
25449;SDS011;13371;52.080;5.624;2024-02-15T04:47:00;12.73;;;6.03;;
25449;SDS011;13371;52.080;5.624;2024-02-15T04:49:28;18.33;;;6.10;;
25449;SDS011;13371;52.080;5.624;2024-02-15T04:51:54;12.15;;;6.70;;
25449;SDS011;13371;52.080;5.624;2024-02-15T04:54:22;16.80;;;6.70;;
25449;SDS011;13371;52.080;5.624;2024-02-15T04:56:48;14.75;;;5.43;;
25449;SDS011;13371;52.080;5.624;2024-02-15T04:59:15;15.43;;;5.55;;
25449;SDS011;13371;52.080;5.624;2024-02-15T05:01:41;11.88;;;6.00;;
25449;SDS011;13371;52.080;5.624;2024-02-15T05:04:10;17.13;;;6.18;;
25449;SDS011;13371;52.080;5.624;2024-02-15T05:06:36;13.90;;;5.28;;
25449;SDS011;13371;52.080;5.624;2024-02-15T05:09:03;9.55;;;4.85;;
25449;SDS011;13371;52.080;5.624;2024-02-15T05:11:39;12.25;;;5.88;;
25449;SDS011;13371;52.080;5.624;2024-02-15T05:14:12;17.40;;;6.40;;
25449;SDS011;13371;52.080;5.624;2024-02-15T05:16:43;10.80;;;5.13;;
25449;SDS011;13371;52.080;5.624;2024-02-15T05:19:14;15.75;;;5.82;;
25449;SDS011;13371;52.080;5.624;2024-02-15T05:21:41;9.27;;;5.43;;
25449;SDS011;13371;52.080;5.624;2024-02-15T05:24:09;16.05;;;5.70;;
25449;SDS011;13371;52.080;5.624;2024-02-15T05:26:39;12.55;;;4.90;;
25449;SDS011;13371;52.080;5.624;2024-02-15T05:29:05;13.25;;;5.38;;
25449;SDS011;13371;52.080;5.624;2024-02-15T05:31:30;16.42;;;5.28;;
25449;SDS011;13371;52.080;5.624;2024-02-15T05:33:56;10.00;;;5.15;;
25449;SDS011;13371;52.080;5.624;2024-02-15T05:36:22;15.80;;;4.70;;
25449;SDS011;13371;52.080;5.624;2024-02-15T05:38:51;12.55;;;5.38;;
25449;SDS011;13371;52.080;5.624;2024-02-15T05:41:18;9.13;;;5.55;;
25449;SDS011;13371;52.080;5.624;2024-02-15T05:43:45;15.98;;;4.93;;
25449;SDS011;13371;52.080;5.624;2024-02-15T05:46:13;15.88;;;5.57;;
25449;SDS011;13371;52.080;5.624;2024-02-15T05:48:39;10.30;;;4.68;;
25449;SDS011;13371;52.080;5.624;2024-02-15T05:51:05;12.95;;;5.63;;
25449;SDS011;13371;52.080;5.624;2024-02-15T05:53:34;13.45;;;5.10;;
25449;SDS011;13371;52.080;5.624;2024-02-15T05:56:04;11.07;;;5.65;;
25449;SDS011;13371;52.080;5.624;2024-02-15T05:58:30;11.55;;;5.05;;
25449;SDS011;13371;52.080;5.624;2024-02-15T06:00:57;12.23;;;4.93;;
25449;SDS011;13371;52.080;5.624;2024-02-15T06:03:29;9.88;;;4.97;;
25449;SDS011;13371;52.080;5.624;2024-02-15T06:05:56;9.00;;;4.75;;
25449;SDS011;13371;52.080;5.624;2024-02-15T06:08:24;15.73;;;5.57;;
25449;SDS011;13371;52.080;5.624;2024-02-15T06:10:54;12.13;;;5.07;;
25449;SDS011;13371;52.080;5.624;2024-02-15T06:13:20;15.05;;;5.30;;
25449;SDS011;13371;52.080;5.624;2024-02-15T06:15:47;11.82;;;5.10;;
25449;SDS011;13371;52.080;5.624;2024-02-15T06:18:17;12.93;;;5.68;;
25449;SDS011;13371;52.080;5.624;2024-02-15T06:20:46;14.05;;;5.03;;
25449;SDS011;13371;52.080;5.624;2024-02-15T06:23:14;14.25;;;5.75;;
25449;SDS011;13371;52.080;5.624;2024-02-15T06:25:40;11.68;;;4.80;;
25449;SDS011;13371;52.080;5.624;2024-02-15T06:28:06;11.65;;;5.82;;
25449;SDS011;13371;52.080;5.624;2024-02-15T06:30:41;13.57;;;5.10;;
25449;SDS011;13371;52.080;5.624;2024-02-15T06:33:25;13.32;;;4.88;;
25449;SDS011;13371;52.080;5.624;2024-02-15T06:36:09;15.10;;;5.68;;
25449;SDS011;13371;52.080;5.624;2024-02-15T06:38:53;12.45;;;5.13;;
25449;SDS011;13371;52.080;5.624;2024-02-15T06:41:37;12.55;;;5.70;;
25449;SDS011;13371;52.080;5.624;2024-02-15T06:44:03;17.40;;;6.30;;
25449;SDS011;13371;52.080;5.624;2024-02-15T06:46:28;10.93;;;5.65;;
25449;SDS011;13371;52.080;5.624;2024-02-15T06:48:54;15.48;;;5.47;;
25449;SDS011;13371;52.080;5.624;2024-02-15T06:51:20;15.30;;;6.47;;
25449;SDS011;13371;52.080;5.624;2024-02-15T06:53:45;13.52;;;6.40;;
25449;SDS011;13371;52.080;5.624;2024-02-15T06:56:11;19.50;;;6.30;;
25449;SDS011;13371;52.080;5.624;2024-02-15T06:58:39;12.43;;;5.88;;
25449;SDS011;13371;52.080;5.624;2024-02-15T07:01:05;12.55;;;6.80;;
25449;SDS011;13371;52.080;5.624;2024-02-15T07:03:31;10.00;;;6.53;;
25449;SDS011;13371;52.080;5.624;2024-02-15T07:06:00;10.80;;;6.13;;
25449;SDS011;13371;52.080;5.624;2024-02-15T07:08:25;11.70;;;6.05;;
25449;SDS011;13371;52.080;5.624;2024-02-15T07:10:51;11.68;;;5.50;;
25449;SDS011;13371;52.080;5.624;2024-02-15T07:13:17;15.25;;;6.10;;
25449;SDS011;13371;52.080;5.624;2024-02-15T07:15:43;13.60;;;6.13;;
25449;SDS011;13371;52.080;5.624;2024-02-15T07:18:10;9.77;;;5.80;;
25449;SDS011;13371;52.080;5.624;2024-02-15T07:20:41;14.63;;;5.90;;
25449;SDS011;13371;52.080;5.624;2024-02-15T07:23:06;15.98;;;5.50;;
25449;SDS011;13371;52.080;5.624;2024-02-15T07:25:32;15.13;;;5.97;;
25449;SDS011;13371;52.080;5.624;2024-02-15T07:27:57;10.70;;;5.50;;
25449;SDS011;13371;52.080;5.624;2024-02-15T07:30:23;9.65;;;5.50;;
25449;SDS011;13371;52.080;5.624;2024-02-15T07:32:49;11.15;;;4.88;;
25449;SDS011;13371;52.080;5.624;2024-02-15T07:35:15;9.95;;;5.13;;
25449;SDS011;13371;52.080;5.624;2024-02-15T07:37:51;9.10;;;5.10;;
25449;SDS011;13371;52.080;5.624;2024-02-15T07:40:20;10.35;;;5.28;;
25449;SDS011;13371;52.080;5.624;2024-02-15T07:42:47;8.82;;;5.20;;
25449;SDS011;13371;52.080;5.624;2024-02-15T07:45:17;8.88;;;4.53;;
25449;SDS011;13371;52.080;5.624;2024-02-15T07:47:42;10.95;;;4.47;;
25449;SDS011;13371;52.080;5.624;2024-02-15T07:50:10;8.75;;;4.97;;
25449;SDS011;13371;52.080;5.624;2024-02-15T07:52:35;11.27;;;5.32;;
25449;SDS011;13371;52.080;5.624;2024-02-15T07:55:01;9.48;;;5.00;;
25449;SDS011;13371;52.080;5.624;2024-02-15T07:57:30;9.25;;;4.28;;
25449;SDS011;13371;52.080;5.624;2024-02-15T07:59:56;8.98;;;4.55;;
25449;SDS011;13371;52.080;5.624;2024-02-15T08:02:22;9.32;;;5.50;;
25449;SDS011;13371;52.080;5.624;2024-02-15T08:04:50;9.38;;;4.90;;
25449;SDS011;13371;52.080;5.624;2024-02-15T08:07:16;8.98;;;4.60;;
25449;SDS011;13371;52.080;5.624;2024-02-15T08:09:42;8.57;;;4.50;;
25449;SDS011;13371;52.080;5.624;2024-02-15T08:12:08;13.50;;;4.50;;
25449;SDS011;13371;52.080;5.624;2024-02-15T08:14:34;7.97;;;4.00;;
25449;SDS011;13371;52.080;5.624;2024-02-15T08:16:59;7.82;;;3.70;;
25449;SDS011;13371;52.080;5.624;2024-02-15T08:19:25;7.15;;;4.15;;
25449;SDS011;13371;52.080;5.624;2024-02-15T08:21:53;6.43;;;4.00;;
25449;SDS011;13371;52.080;5.624;2024-02-15T08:24:19;7.07;;;3.75;;
25449;SDS011;13371;52.080;5.624;2024-02-15T08:26:45;9.85;;;4.78;;
25449;SDS011;13371;52.080;5.624;2024-02-15T08:29:10;7.07;;;4.38;;
25449;SDS011;13371;52.080;5.624;2024-02-15T08:31:36;6.22;;;3.92;;
25449;SDS011;13371;52.080;5.624;2024-02-15T08:34:02;8.82;;;4.15;;
25449;SDS011;13371;52.080;5.624;2024-02-15T08:36:30;4.43;;;3.28;;
25449;SDS011;13371;52.080;5.624;2024-02-15T08:38:56;6.15;;;3.55;;
25449;SDS011;13371;52.080;5.624;2024-02-15T08:41:22;6.50;;;3.38;;
25449;SDS011;13371;52.080;5.624;2024-02-15T08:43:51;7.15;;;3.65;;
25449;SDS011;13371;52.080;5.624;2024-02-15T08:46:17;5.07;;;3.25;;
25449;SDS011;13371;52.080;5.624;2024-02-15T08:48:44;6.00;;;3.45;;
25449;SDS011;13371;52.080;5.624;2024-02-15T08:51:11;6.47;;;3.08;;
25449;SDS011;13371;52.080;5.624;2024-02-15T08:53:37;8.77;;;3.13;;
25449;SDS011;13371;52.080;5.624;2024-02-15T08:56:03;7.47;;;3.50;;
25449;SDS011;13371;52.080;5.624;2024-02-15T08:58:29;4.72;;;3.40;;
25449;SDS011;13371;52.080;5.624;2024-02-15T09:00:56;6.03;;;3.30;;
25449;SDS011;13371;52.080;5.624;2024-02-15T09:03:22;4.22;;;2.80;;
25449;SDS011;13371;52.080;5.624;2024-02-15T09:05:47;4.57;;;3.05;;
25449;SDS011;13371;52.080;5.624;2024-02-15T09:08:13;4.47;;;2.30;;
25449;SDS011;13371;52.080;5.624;2024-02-15T09:10:40;5.47;;;2.95;;
25449;SDS011;13371;52.080;5.624;2024-02-15T09:13:07;6.40;;;3.00;;
25449;SDS011;13371;52.080;5.624;2024-02-15T09:15:33;4.80;;;2.83;;
25449;SDS011;13371;52.080;5.624;2024-02-15T09:17:59;6.65;;;3.00;;
25449;SDS011;13371;52.080;5.624;2024-02-15T09:20:25;6.38;;;3.03;;
25449;SDS011;13371;52.080;5.624;2024-02-15T09:22:53;5.55;;;3.13;;
25449;SDS011;13371;52.080;5.624;2024-02-15T09:25:20;4.90;;;2.55;;
25449;SDS011;13371;52.080;5.624;2024-02-15T09:27:48;8.18;;;3.25;;
25449;SDS011;13371;52.080;5.624;2024-02-15T09:30:14;5.95;;;2.70;;
25449;SDS011;13371;52.080;5.624;2024-02-15T09:32:40;5.60;;;3.17;;
25449;SDS011;13371;52.080;5.624;2024-02-15T09:35:06;8.27;;;3.08;;
25449;SDS011;13371;52.080;5.624;2024-02-15T09:37:36;7.15;;;3.20;;
25449;SDS011;13371;52.080;5.624;2024-02-15T09:40:10;7.35;;;3.40;;
25449;SDS011;13371;52.080;5.624;2024-02-15T09:42:37;7.40;;;3.53;;
25449;SDS011;13371;52.080;5.624;2024-02-15T09:45:05;6.10;;;3.38;;
25449;SDS011;13371;52.080;5.624;2024-02-15T09:47:34;8.93;;;3.25;;
25449;SDS011;13371;52.080;5.624;2024-02-15T09:50:01;10.15;;;3.90;;
25449;SDS011;13371;52.080;5.624;2024-02-15T09:52:36;8.93;;;3.40;;
25449;SDS011;13371;52.080;5.624;2024-02-15T09:55:03;5.20;;;3.00;;
25449;SDS011;13371;52.080;5.624;2024-02-15T09:57:29;7.63;;;2.95;;
25449;SDS011;13371;52.080;5.624;2024-02-15T10:00:00;9.73;;;3.85;;
25449;SDS011;13371;52.080;5.624;2024-02-15T10:02:27;8.30;;;3.95;;
25449;SDS011;13371;52.080;5.624;2024-02-15T10:04:53;7.88;;;4.18;;
25449;SDS011;13371;52.080;5.624;2024-02-15T10:07:25;11.45;;;4.50;;
25449;SDS011;13371;52.080;5.624;2024-02-15T10:09:52;8.13;;;4.35;;
25449;SDS011;13371;52.080;5.624;2024-02-15T10:12:18;6.03;;;3.75;;
25449;SDS011;13371;52.080;5.624;2024-02-15T10:14:49;8.30;;;3.75;;
25449;SDS011;13371;52.080;5.624;2024-02-15T10:17:15;8.23;;;4.20;;
25449;SDS011;13371;52.080;5.624;2024-02-15T10:19:42;9.45;;;4.35;;
25449;SDS011;13371;52.080;5.624;2024-02-15T10:22:10;8.18;;;3.60;;
25449;SDS011;13371;52.080;5.624;2024-02-15T10:24:39;10.30;;;3.83;;
25449;SDS011;13371;52.080;5.624;2024-02-15T10:27:05;7.20;;;3.42;;
25449;SDS011;13371;52.080;5.624;2024-02-15T10:29:35;9.50;;;3.55;;
25449;SDS011;13371;52.080;5.624;2024-02-15T10:32:02;10.60;;;4.30;;
25449;SDS011;13371;52.080;5.624;2024-02-15T10:34:29;9.48;;;3.85;;
25449;SDS011;13371;52.080;5.624;2024-02-15T10:36:55;9.40;;;3.60;;
25449;SDS011;13371;52.080;5.624;2024-02-15T10:39:39;6.68;;;3.83;;
25449;SDS011;13371;52.080;5.624;2024-02-15T10:42:08;9.35;;;4.18;;
25449;SDS011;13371;52.080;5.624;2024-02-15T10:44:37;8.73;;;3.53;;
25449;SDS011;13371;52.080;5.624;2024-02-15T10:47:05;11.60;;;4.32;;
25449;SDS011;13371;52.080;5.624;2024-02-15T10:49:32;7.28;;;3.80;;
25449;SDS011;13371;52.080;5.624;2024-02-15T10:51:59;9.65;;;3.55;;
25449;SDS011;13371;52.080;5.624;2024-02-15T10:57:04;11.30;;;4.28;;
25449;SDS011;13371;52.080;5.624;2024-02-15T10:59:34;7.55;;;4.10;;
25449;SDS011;13371;52.080;5.624;2024-02-15T11:02:49;12.27;;;5.03;;
25449;SDS011;13371;52.080;5.624;2024-02-15T11:05:12;15.32;;;4.07;;
25449;SDS011;13371;52.080;5.624;2024-02-15T11:10:11;11.20;;;4.25;;
25449;SDS011;13371;52.080;5.624;2024-02-15T11:12:41;11.07;;;4.00;;
25449;SDS011;13371;52.080;5.624;2024-02-15T11:15:08;8.82;;;4.35;;
25449;SDS011;13371;52.080;5.624;2024-02-15T11:20:05;8.88;;;4.05;;
25449;SDS011;13371;52.080;5.624;2024-02-15T11:22:36;8.10;;;4.75;;
25449;SDS011;13371;52.080;5.624;2024-02-15T11:25:05;19.52;;;5.38;;
25449;SDS011;13371;52.080;5.624;2024-02-15T11:27:37;10.77;;;4.30;;
25449;SDS011;13371;52.080;5.624;2024-02-15T11:30:04;8.98;;;4.25;;
25449;SDS011;13371;52.080;5.624;2024-02-15T11:40:19;7.97;;;4.47;;
25449;SDS011;13371;52.080;5.624;2024-02-15T11:43:07;12.60;;;5.28;;
25449;SDS011;13371;52.080;5.624;2024-02-15T11:45:35;15.77;;;5.13;;
25449;SDS011;13371;52.080;5.624;2024-02-15T11:48:07;6.68;;;4.25;;
25449;SDS011;13371;52.080;5.624;2024-02-15T11:50:39;12.93;;;4.25;;
25449;SDS011;13371;52.080;5.624;2024-02-15T11:53:06;10.48;;;4.60;;
25449;SDS011;13371;52.080;5.624;2024-02-15T11:55:40;15.50;;;4.75;;
25449;SDS011;13371;52.080;5.624;2024-02-15T11:58:08;12.25;;;5.07;;
25449;SDS011;13371;52.080;5.624;2024-02-15T12:00:34;13.88;;;4.75;;
25449;SDS011;13371;52.080;5.624;2024-02-15T12:03:19;11.13;;;4.80;;
25449;SDS011;13371;52.080;5.624;2024-02-15T12:06:03;8.95;;;4.57;;
25449;SDS011;13371;52.080;5.624;2024-02-15T12:08:48;10.23;;;4.20;;
25449;SDS011;13371;52.080;5.624;2024-02-15T12:11:37;12.15;;;4.90;;
25449;SDS011;13371;52.080;5.624;2024-02-15T12:14:22;15.57;;;5.35;;
25449;SDS011;13371;52.080;5.624;2024-02-15T12:17:10;7.68;;;4.95;;
25449;SDS011;13371;52.080;5.624;2024-02-15T12:19:56;13.82;;;5.88;;
25449;SDS011;13371;52.080;5.624;2024-02-15T12:22:35;8.52;;;4.60;;
25449;SDS011;13371;52.080;5.624;2024-02-15T12:25:05;11.27;;;5.93;;
25449;SDS011;13371;52.080;5.624;2024-02-15T12:27:43;10.23;;;5.03;;
25449;SDS011;13371;52.080;5.624;2024-02-15T12:30:13;10.88;;;5.40;;
25449;SDS011;13371;52.080;5.624;2024-02-15T12:32:40;11.85;;;5.05;;
25449;SDS011;13371;52.080;5.624;2024-02-15T12:35:09;7.78;;;4.18;;
25449;SDS011;13371;52.080;5.624;2024-02-15T12:37:45;9.45;;;5.15;;
25449;SDS011;13371;52.080;5.624;2024-02-15T12:40:11;9.70;;;4.68;;
25449;SDS011;13371;52.080;5.624;2024-02-15T12:42:44;14.20;;;5.13;;
25449;SDS011;13371;52.080;5.624;2024-02-15T12:45:15;8.00;;;4.25;;
25449;SDS011;13371;52.080;5.624;2024-02-15T12:47:45;8.70;;;4.25;;
25449;SDS011;13371;52.080;5.624;2024-02-15T12:50:19;13.50;;;5.38;;
25449;SDS011;13371;52.080;5.624;2024-02-15T12:52:47;6.85;;;4.25;;
25449;SDS011;13371;52.080;5.624;2024-02-15T12:57:40;8.30;;;4.43;;
25449;SDS011;13371;52.080;5.624;2024-02-15T13:00:08;11.57;;;5.05;;
25449;SDS011;13371;52.080;5.624;2024-02-15T13:02:42;10.65;;;4.32;;
25449;SDS011;13371;52.080;5.624;2024-02-15T13:05:13;10.77;;;4.90;;
25449;SDS011;13371;52.080;5.624;2024-02-15T13:07:47;8.63;;;4.95;;
25449;SDS011;13371;52.080;5.624;2024-02-15T13:10:16;10.40;;;4.38;;
25449;SDS011;13371;52.080;5.624;2024-02-15T13:12:42;8.93;;;4.47;;
25449;SDS011;13371;52.080;5.624;2024-02-15T13:15:15;8.95;;;4.53;;
25449;SDS011;13371;52.080;5.624;2024-02-15T13:17:51;9.15;;;4.43;;
25449;SDS011;13371;52.080;5.624;2024-02-15T13:20:18;8.77;;;3.30;;
25449;SDS011;13371;52.080;5.624;2024-02-15T13:23:03;7.03;;;3.80;;
25449;SDS011;13371;52.080;5.624;2024-02-15T13:25:35;8.77;;;4.28;;
25449;SDS011;13371;52.080;5.624;2024-02-15T13:28:03;9.88;;;3.83;;
25449;SDS011;13371;52.080;5.624;2024-02-15T13:30:29;10.13;;;3.30;;
25449;SDS011;13371;52.080;5.624;2024-02-15T13:32:55;6.97;;;3.53;;
25449;SDS011;13371;52.080;5.624;2024-02-15T13:35:31;8.23;;;3.38;;
25449;SDS011;13371;52.080;5.624;2024-02-15T13:37:59;7.10;;;3.53;;
25449;SDS011;13371;52.080;5.624;2024-02-15T13:40:39;8.60;;;3.40;;
25449;SDS011;13371;52.080;5.624;2024-02-15T13:43:06;9.57;;;3.40;;
25449;SDS011;13371;52.080;5.624;2024-02-15T13:45:41;12.02;;;3.58;;
25449;SDS011;13371;52.080;5.624;2024-02-15T13:48:10;10.57;;;3.40;;
25449;SDS011;13371;52.080;5.624;2024-02-15T13:50:41;6.97;;;3.38;;
25449;SDS011;13371;52.080;5.624;2024-02-15T13:53:07;5.47;;;3.45;;
25449;SDS011;13371;52.080;5.624;2024-02-15T13:58:25;6.45;;;2.97;;
25449;SDS011;13371;52.080;5.624;2024-02-15T14:04:30;6.72;;;2.92;;
25449;SDS011;13371;52.080;5.624;2024-02-15T14:24:44;7.53;;;2.65;;
25449;SDS011;13371;52.080;5.624;2024-02-15T15:46:14;8.50;;;2.78;;
25449;SDS011;13371;52.080;5.624;2024-02-15T15:48:40;8.10;;;2.90;;
25449;SDS011;13371;52.080;5.624;2024-02-15T15:51:05;6.53;;;2.78;;
25449;SDS011;13371;52.080;5.624;2024-02-15T15:53:34;6.15;;;2.90;;
25449;SDS011;13371;52.080;5.624;2024-02-15T15:56:05;5.65;;;2.95;;
25449;SDS011;13371;52.080;5.624;2024-02-15T15:58:31;9.60;;;2.65;;
25449;SDS011;13371;52.080;5.624;2024-02-15T16:00:58;5.22;;;2.50;;
25449;SDS011;13371;52.080;5.624;2024-02-15T16:03:37;9.90;;;3.10;;
25449;SDS011;13371;52.080;5.624;2024-02-15T16:06:07;7.50;;;3.10;;
25449;SDS011;13371;52.080;5.624;2024-02-15T16:08:59;8.75;;;3.40;;
25449;SDS011;13371;52.080;5.624;2024-02-15T16:11:28;6.65;;;2.72;;
25449;SDS011;13371;52.080;5.624;2024-02-15T16:21:02;8.23;;;3.00;;
25449;SDS011;13371;52.080;5.624;2024-02-15T16:26:25;7.60;;;2.92;;
25449;SDS011;13371;52.080;5.624;2024-02-15T16:28:51;8.52;;;2.75;;
25449;SDS011;13371;52.080;5.624;2024-02-15T16:31:17;8.35;;;2.90;;
25449;SDS011;13371;52.080;5.624;2024-02-15T16:36:27;8.98;;;3.60;;
25449;SDS011;13371;52.080;5.624;2024-02-15T16:39:14;9.25;;;3.45;;
25449;SDS011;13371;52.080;5.624;2024-02-15T16:41:45;5.72;;;2.85;;
25449;SDS011;13371;52.080;5.624;2024-02-15T16:44:16;8.70;;;3.20;;
25449;SDS011;13371;52.080;5.624;2024-02-15T16:46:42;7.40;;;2.65;;
25449;SDS011;13371;52.080;5.624;2024-02-15T16:49:09;8.82;;;3.45;;
25449;SDS011;13371;52.080;5.624;2024-02-15T16:54:33;12.10;;;3.80;;
25449;SDS011;13371;52.080;5.624;2024-02-15T16:56:58;6.85;;;3.90;;
25449;SDS011;13371;52.080;5.624;2024-02-15T16:59:24;9.32;;;3.63;;
25449;SDS011;13371;52.080;5.624;2024-02-15T17:01:55;7.07;;;3.15;;
25449;SDS011;13371;52.080;5.624;2024-02-15T17:04:21;8.38;;;2.80;;